createdAt,value
2019-01-09T00:02:24.293Z,2.47
2019-01-09T00:04:52.927Z,2.73
2019-01-09T00:07:21.598Z,1.83
2019-01-09T00:09:50.162Z,3.10
2019-01-09T00:12:18.887Z,2.17
2019-01-09T00:14:47.488Z,2.43
2019-01-09T00:17:16.120Z,2.17
2019-01-09T00:19:44.751Z,2.50
2019-01-09T00:22:13.441Z,2.30
2019-01-09T00:24:42.065Z,2.00
2019-01-09T00:27:10.699Z,2.90
2019-01-09T00:29:39.370Z,2.27
2019-01-09T00:32:08.020Z,2.40
2019-01-09T00:34:36.588Z,3.40
2019-01-09T00:37:05.122Z,1.93
2019-01-09T00:39:33.678Z,2.63
2019-01-09T00:42:02.232Z,2.40
2019-01-09T00:44:30.909Z,1.80
2019-01-09T00:46:59.536Z,2.00
2019-01-09T00:49:28.174Z,3.80
2019-01-09T00:51:56.773Z,2.50
2019-01-09T00:54:25.340Z,2.43
2019-01-09T00:56:53.966Z,2.40
2019-01-09T00:59:22.648Z,2.13
2019-01-09T01:02:00.415Z,2.80
2019-01-09T01:04:41.042Z,2.67
2019-01-09T01:07:18.785Z,2.80
2019-01-09T01:10:22.544Z,1.77
2019-01-09T01:13:15.384Z,1.80
2019-01-09T01:15:58.838Z,1.93
2019-01-09T01:18:45.421Z,2.17
2019-01-09T01:21:32.425Z,2.73
2019-01-09T01:24:36.367Z,1.70
2019-01-09T01:27:13.656Z,2.30
2019-01-09T01:30:03.272Z,1.63
2019-01-09T01:32:44.049Z,2.03
2019-01-09T01:35:44.811Z,2.43
2019-01-09T01:38:25.347Z,1.77
2019-01-09T01:41:05.760Z,2.27
2019-01-09T01:43:43.201Z,1.80
2019-01-09T01:46:17.592Z,2.30
2019-01-09T01:49:01.358Z,1.43
2019-01-09T01:51:38.527Z,1.83
2019-01-09T01:54:34.742Z,2.30
2019-01-09T01:57:21.452Z,1.53
2019-01-09T01:59:58.831Z,2.27
2019-01-09T02:02:35.887Z,2.23
2019-01-09T02:05:16.873Z,1.70
2019-01-09T02:07:57.430Z,1.40
2019-01-09T02:10:47.722Z,1.60
2019-01-09T02:13:28.051Z,1.90
2019-01-09T02:16:08.918Z,1.40
2019-01-09T02:18:40.598Z,2.53
2019-01-09T02:21:18.289Z,2.93
2019-01-09T02:24:15.618Z,1.20
2019-01-09T02:26:53.061Z,2.27
2019-01-09T02:29:36.479Z,132.23
2019-01-09T02:32:13.957Z,1.43
2019-01-09T02:34:42.468Z,13.53
2019-01-09T02:37:11.022Z,1.17
2019-01-09T02:39:39.562Z,1.63
2019-01-09T02:42:08.127Z,1.50
2019-01-09T02:44:36.679Z,3.07
2019-01-09T02:47:05.360Z,1.63
2019-01-09T02:49:33.992Z,3.80
2019-01-09T02:52:02.562Z,2.00
2019-01-09T02:54:31.183Z,2.73
2019-01-09T02:56:59.768Z,4.17
2019-01-09T02:59:28.321Z,32.33
2019-01-09T03:01:57.010Z,21.60
2019-01-09T03:04:25.659Z,34.40
2019-01-09T03:06:54.287Z,3.90
2019-01-09T03:09:22.975Z,2.53
2019-01-09T03:11:51.880Z,2.20
2019-01-09T03:14:20.512Z,1.60
2019-01-09T03:16:49.121Z,1.70
2019-01-09T03:19:17.762Z,12.63
2019-01-09T03:21:46.329Z,1.90
2019-01-09T03:24:14.929Z,3.53
2019-01-09T03:26:43.490Z,5.10
2019-01-09T03:29:12.118Z,2.20
2019-01-09T03:31:40.703Z,1.40
2019-01-09T03:34:09.268Z,1.90
2019-01-09T03:36:37.896Z,13.03
2019-01-09T03:39:06.812Z,2.60
2019-01-09T03:41:35.370Z,1.20
2019-01-09T03:44:03.923Z,1.93
2019-01-09T03:46:32.557Z,56.73
2019-01-09T03:49:01.167Z,1.77
2019-01-09T03:51:29.683Z,2.13
2019-01-09T03:53:58.288Z,1.40
2019-01-09T03:56:26.849Z,1.40
2019-01-09T03:58:55.410Z,1.47
2019-01-09T04:01:24.023Z,1.43
2019-01-09T04:03:52.563Z,1.60
2019-01-09T04:06:21.503Z,2.00
2019-01-09T04:08:50.182Z,1.87
2019-01-09T04:11:18.665Z,1.53
2019-01-09T04:13:47.309Z,2.17
2019-01-09T04:16:15.931Z,1.47
2019-01-09T04:18:44.489Z,1.20
2019-01-09T04:21:12.989Z,1.93
2019-01-09T04:23:41.674Z,2.27
2019-01-09T04:26:10.151Z,1.40
2019-01-09T04:28:38.781Z,1.50
2019-01-09T04:31:07.387Z,1.53
2019-01-09T04:33:35.934Z,2.30
2019-01-09T04:36:04.499Z,1.70
2019-01-09T04:38:33.174Z,1.37
2019-01-09T04:41:01.791Z,2.20
2019-01-09T04:43:30.421Z,1.60
2019-01-09T04:45:58.950Z,2.07
2019-01-09T04:48:27.519Z,1.63
2019-01-09T04:50:56.156Z,1.37
2019-01-09T04:53:24.831Z,1.73
2019-01-09T04:55:53.458Z,2.43
2019-01-09T04:58:25.039Z,2.10
2019-01-09T05:00:53.639Z,2.33
2019-01-09T05:03:22.286Z,2.17
2019-01-09T05:05:50.924Z,2.03
2019-01-09T05:08:19.608Z,3.27
2019-01-09T05:10:48.096Z,2.90
2019-01-09T05:13:16.730Z,2.90
2019-01-09T05:15:45.415Z,2.27
2019-01-09T05:18:14.039Z,3.00
2019-01-09T05:20:42.664Z,2.53
2019-01-09T05:23:11.593Z,2.40
2019-01-09T05:25:40.264Z,2.23
2019-01-09T05:28:08.894Z,3.33
2019-01-09T05:30:37.458Z,2.97
2019-01-09T05:33:06.103Z,2.40
2019-01-09T05:35:35.187Z,2.63
2019-01-09T05:38:03.852Z,2.77
2019-01-09T05:40:32.483Z,3.37
2019-01-09T05:43:00.971Z,2.30
2019-01-09T05:45:29.646Z,3.57
2019-01-09T05:47:59.187Z,2.90
2019-01-09T05:50:27.841Z,3.37
2019-01-09T05:52:56.511Z,2.60
2019-01-09T05:55:25.094Z,3.10
2019-01-09T05:57:54.149Z,2.97
2019-01-09T06:00:22.835Z,3.43
2019-01-09T06:02:51.397Z,3.70
2019-01-09T06:05:19.959Z,4.40
2019-01-09T06:07:48.649Z,4.83
2019-01-09T06:10:17.269Z,4.20
2019-01-09T06:12:45.834Z,5.23
2019-01-09T06:15:14.510Z,4.80
2019-01-09T06:17:43.128Z,4.13
2019-01-09T06:20:11.680Z,3.37
2019-01-09T06:22:40.352Z,5.97
2019-01-09T06:25:08.929Z,5.77
2019-01-09T06:27:37.490Z,5.37
2019-01-09T06:30:10.049Z,4.83
2019-01-09T06:32:38.688Z,5.47
2019-01-09T06:35:08.813Z,4.47
2019-01-09T06:37:37.480Z,4.53
2019-01-09T06:40:07.547Z,7.47
2019-01-09T06:42:36.172Z,7.40
2019-01-09T06:45:05.348Z,6.53
2019-01-09T06:47:33.976Z,5.47
2019-01-09T06:50:07.346Z,6.97
2019-01-09T06:52:36.009Z,6.60
2019-01-09T06:55:04.612Z,6.00
2019-01-09T06:57:33.148Z,5.87
2019-01-09T07:00:01.856Z,6.50
2019-01-09T07:02:30.454Z,5.77
2019-01-09T07:04:59.011Z,4.73
2019-01-09T07:07:35.840Z,6.13
2019-01-09T07:09:57.872Z,5.77
2019-01-09T07:12:26.325Z,5.50
2019-01-09T07:14:54.932Z,6.70
2019-01-09T07:17:23.568Z,7.97
2019-01-09T07:19:52.149Z,6.80
2019-01-09T07:22:20.764Z,6.73
2019-01-09T07:24:49.332Z,6.63
2019-01-09T07:27:17.961Z,7.30
2019-01-09T07:29:46.490Z,5.97
2019-01-09T07:32:15.129Z,6.33
2019-01-09T07:34:43.689Z,6.53
2019-01-09T07:37:12.318Z,6.83
2019-01-09T07:39:40.865Z,8.20
2019-01-09T07:42:09.520Z,7.23
2019-01-09T07:44:38.116Z,8.20
2019-01-09T07:47:06.740Z,6.83
2019-01-09T07:49:35.234Z,7.67
2019-01-09T07:52:04.799Z,12.07
2019-01-09T07:54:33.425Z,7.50
2019-01-09T07:57:01.989Z,5.57
2019-01-09T07:59:30.660Z,6.03
2019-01-09T08:01:59.291Z,6.00
2019-01-09T08:04:27.795Z,6.30
2019-01-09T08:06:56.858Z,6.53
2019-01-09T08:09:25.496Z,6.83
2019-01-09T08:11:53.984Z,6.97
2019-01-09T08:14:22.586Z,6.67
2019-01-09T08:16:51.215Z,6.67
2019-01-09T08:19:19.785Z,7.30
2019-01-09T08:21:48.395Z,5.93
2019-01-09T08:24:16.992Z,5.20
2019-01-09T08:26:45.560Z,6.70
2019-01-09T08:29:14.352Z,8.83
2019-01-09T08:31:42.975Z,8.00
2019-01-09T08:34:11.436Z,80.33
2019-01-09T08:36:39.711Z,78.70
2019-01-09T08:39:08.046Z,78.17
2019-01-09T08:41:36.378Z,78.43
2019-01-09T08:44:04.766Z,79.23
2019-01-09T08:46:33.094Z,82.00
2019-01-09T08:49:01.425Z,77.67
2019-01-09T08:51:29.807Z,78.03
2019-01-09T08:53:59.043Z,77.97
2019-01-09T08:56:27.321Z,80.73
2019-01-09T08:58:55.705Z,81.63
2019-01-09T09:01:24.439Z,83.50
2019-01-09T09:03:52.767Z,79.97
2019-01-09T09:06:21.158Z,79.90
2019-01-09T09:08:49.479Z,78.07
2019-01-09T09:11:17.746Z,83.53
2019-01-09T09:13:46.143Z,80.77
2019-01-09T09:16:14.384Z,82.13
2019-01-09T09:18:42.723Z,83.10
2019-01-09T09:21:11.030Z,78.33
2019-01-09T09:23:39.368Z,82.10
2019-01-09T09:26:07.702Z,81.27
2019-01-09T09:28:36.082Z,82.80
2019-01-09T09:31:04.750Z,80.30
2019-01-09T09:33:33.011Z,80.10
2019-01-09T09:36:01.773Z,83.57
2019-01-09T09:38:30.334Z,78.00
2019-01-09T09:40:58.928Z,82.73
2019-01-09T09:43:27.218Z,82.23
2019-01-09T09:45:55.560Z,78.80
2019-01-09T09:48:23.894Z,80.13
2019-01-09T09:50:52.197Z,78.93
2019-01-09T09:53:20.871Z,79.27
2019-01-09T09:55:50.387Z,80.43
2019-01-09T09:58:19.014Z,78.20
2019-01-09T10:00:47.664Z,74.73
2019-01-09T10:03:15.920Z,78.97
2019-01-09T10:05:44.936Z,87.77
2019-01-09T10:08:13.209Z,82.30
2019-01-09T10:10:41.447Z,76.50
2019-01-09T10:13:10.078Z,83.17
2019-01-09T10:15:38.726Z,77.30
2019-01-09T10:18:07.057Z,76.10
2019-01-09T10:20:35.360Z,75.70
2019-01-09T10:23:04.039Z,82.70
2019-01-09T10:25:32.629Z,77.77
2019-01-09T10:28:00.985Z,81.33
2019-01-09T10:30:29.319Z,76.77
2019-01-09T10:32:57.835Z,80.27
2019-01-09T10:35:26.525Z,81.93
2019-01-09T10:37:55.178Z,79.23
2019-01-09T10:40:23.743Z,76.87
2019-01-09T10:42:52.364Z,77.80
2019-01-09T10:45:21.613Z,76.27
2019-01-09T10:47:50.222Z,77.77
2019-01-09T10:50:19.822Z,74.40
2019-01-09T10:52:48.454Z,76.27
2019-01-09T10:55:18.217Z,75.30
2019-01-09T10:57:48.294Z,73.97
2019-01-09T11:00:19.347Z,75.50
2019-01-09T11:02:47.927Z,77.63
2019-01-09T11:05:16.247Z,77.80
2019-01-09T11:07:44.568Z,75.23
2019-01-09T11:10:14.143Z,75.17
2019-01-09T11:12:42.756Z,76.83
2019-01-09T11:15:12.105Z,79.10
2019-01-09T11:17:40.740Z,81.10
2019-01-09T11:20:17.439Z,76.97
2019-01-09T11:22:46.089Z,79.27
2019-01-09T11:25:16.148Z,77.63
2019-01-09T11:27:44.716Z,77.03
2019-01-09T11:30:16.144Z,79.57
2019-01-09T11:32:44.718Z,79.93
2019-01-09T11:35:15.347Z,78.77
2019-01-09T11:37:44.362Z,78.17
2019-01-09T11:40:14.096Z,79.80
2019-01-09T11:42:43.148Z,80.83
2019-01-09T11:45:14.093Z,80.17
2019-01-09T11:47:42.688Z,77.57
2019-01-09T11:50:12.482Z,82.47
2019-01-09T11:52:41.050Z,84.00
2019-01-09T11:55:11.300Z,79.43
2019-01-09T11:57:39.994Z,77.73
2019-01-09T12:00:19.049Z,81.60
2019-01-09T12:02:47.666Z,79.10
2019-01-09T12:05:15.942Z,79.63
2019-01-09T12:07:44.519Z,78.77
2019-01-09T12:10:18.402Z,81.60
2019-01-09T12:12:49.445Z,82.27
2019-01-09T12:15:18.619Z,79.07
2019-01-09T12:17:47.233Z,80.33
2019-01-09T12:20:17.712Z,76.60
2019-01-09T12:22:46.439Z,80.60
2019-01-09T12:25:15.048Z,81.30
2019-01-09T12:27:43.313Z,72.37
2019-01-09T12:30:13.445Z,81.40
2019-01-09T12:32:42.082Z,79.60
2019-01-09T12:35:10.264Z,84.50
2019-01-09T12:37:38.528Z,82.27
2019-01-09T12:40:08.207Z,77.83
2019-01-09T12:42:36.536Z,77.13
2019-01-09T12:45:13.873Z,81.67
2019-01-09T12:47:42.196Z,80.43
2019-01-09T12:50:14.316Z,82.10
2019-01-09T12:52:42.603Z,83.17
2019-01-09T12:55:10.937Z,83.93
2019-01-09T12:57:39.194Z,81.57
2019-01-09T13:00:16.620Z,81.47
2019-01-09T13:02:46.036Z,79.10
2019-01-09T13:05:14.287Z,74.63
2019-01-09T13:07:42.634Z,76.70
2019-01-09T13:10:11.208Z,81.40
2019-01-09T13:12:39.466Z,77.80
2019-01-09T13:15:11.365Z,79.60
2019-01-09T13:17:39.633Z,79.47
2019-01-09T13:20:12.016Z,76.57
2019-01-09T13:22:40.623Z,78.80
2019-01-09T13:25:10.363Z,78.87
2019-01-09T13:27:38.999Z,76.70
2019-01-09T13:30:13.659Z,77.50
2019-01-09T13:32:42.305Z,74.93
2019-01-09T13:35:10.888Z,78.70
2019-01-09T13:37:39.203Z,77.20
2019-01-09T13:40:16.094Z,81.37
2019-01-09T13:42:44.740Z,79.53
2019-01-09T13:45:14.272Z,78.23
2019-01-09T13:47:42.533Z,77.50
2019-01-09T13:50:13.252Z,78.80
2019-01-09T13:52:41.831Z,81.43
2019-01-09T13:55:12.363Z,81.53
2019-01-09T13:57:40.754Z,84.37
2019-01-09T14:00:12.807Z,83.63
2019-01-09T14:02:41.447Z,81.90
2019-01-09T14:05:10.051Z,81.70
2019-01-09T14:07:38.397Z,89.03
2019-01-09T14:10:11.047Z,86.80
2019-01-09T14:12:39.852Z,89.53
2019-01-09T14:15:09.977Z,83.83
2019-01-09T14:17:38.848Z,78.53
2019-01-09T14:20:10.530Z,85.03
2019-01-09T14:22:39.203Z,85.27
2019-01-09T14:25:12.319Z,86.53
2019-01-09T14:27:41.037Z,90.33
2019-01-09T14:30:12.950Z,89.10
2019-01-09T14:32:41.286Z,88.03
2019-01-09T14:35:09.901Z,79.70
2019-01-09T14:37:38.234Z,90.17
2019-01-09T14:40:10.410Z,89.33
2019-01-09T14:42:38.714Z,84.13
2019-01-09T14:45:09.358Z,83.00
2019-01-09T14:47:37.634Z,94.45
2019-01-09T14:50:10.628Z,100.57
2019-01-09T14:52:39.024Z,96.63
2019-01-09T14:55:10.526Z,79.62
2019-01-09T14:57:38.834Z,84.03
2019-01-09T15:00:08.834Z,83.87
2019-01-09T15:02:37.155Z,80.40
2019-01-09T15:05:08.851Z,82.63
2019-01-09T15:07:37.531Z,80.43
2019-01-09T15:10:07.491Z,80.17
2019-01-09T15:12:35.848Z,75.00
2019-01-09T15:15:04.912Z,78.07
2019-01-09T15:17:33.258Z,87.07
2019-01-09T15:20:01.579Z,81.73
2019-01-09T15:22:29.919Z,72.73
2019-01-09T15:24:58.248Z,85.60
2019-01-09T15:27:26.888Z,87.77
2019-01-09T15:29:55.552Z,88.23
2019-01-09T15:32:23.891Z,86.80
2019-01-09T15:34:52.566Z,83.53
2019-01-09T15:37:20.902Z,93.87
2019-01-09T15:39:49.294Z,104.27
2019-01-09T15:42:17.975Z,104.80
2019-01-09T15:44:46.557Z,89.40
2019-01-09T15:47:15.134Z,103.50
2019-01-09T15:49:43.431Z,93.47
2019-01-09T15:52:11.708Z,104.80
2019-01-09T15:54:40.227Z,98.90
2019-01-09T15:57:08.603Z,99.67
2019-01-09T15:59:37.268Z,82.43
2019-01-09T16:02:05.914Z,95.83
2019-01-09T16:04:34.317Z,105.93
2019-01-09T16:07:02.587Z,94.20
2019-01-09T16:09:31.561Z,83.43
2019-01-09T16:12:00.252Z,108.67
2019-01-09T16:14:28.917Z,105.03
2019-01-09T16:16:57.556Z,106.63
2019-01-09T16:19:26.247Z,99.97
2019-01-09T16:21:54.588Z,109.50
2019-01-09T16:24:23.154Z,94.07
2019-01-09T16:26:51.767Z,95.70
2019-01-09T16:29:20.355Z,165.50
2019-01-09T16:31:49.013Z,160.40
2019-01-09T16:34:17.628Z,152.63
2019-01-09T16:36:46.205Z,171.00
2019-01-09T16:39:14.763Z,117.07
2019-01-09T16:41:43.388Z,164.07
2019-01-09T16:44:12.030Z,191.77
2019-01-09T16:46:40.614Z,165.93
2019-01-09T16:49:09.640Z,155.47
2019-01-09T16:51:38.294Z,136.40
2019-01-09T16:54:06.889Z,204.47
2019-01-09T16:56:36.222Z,154.30
2019-01-09T16:59:04.998Z,124.07
2019-01-09T17:01:34.046Z,118.77
2019-01-09T17:04:02.654Z,142.33
2019-01-09T17:06:31.253Z,157.87
2019-01-09T17:09:00.353Z,148.67
2019-01-09T17:11:29.028Z,181.30
2019-01-09T17:13:57.672Z,159.10
2019-01-09T17:16:26.321Z,152.90
2019-01-09T17:18:55.019Z,122.17
2019-01-09T17:21:24.068Z,185.37
2019-01-09T17:23:52.636Z,167.40
2019-01-09T17:26:21.248Z,152.73
2019-01-09T17:28:50.270Z,170.40
2019-01-09T17:31:18.950Z,172.57
2019-01-09T17:33:48.385Z,216.33
2019-01-09T17:36:17.030Z,103.60
2019-01-09T17:38:46.102Z,133.47
2019-01-09T17:41:14.800Z,131.27
2019-01-09T17:43:43.450Z,136.20
2019-01-09T17:46:12.439Z,136.97
2019-01-09T17:48:41.571Z,120.83
2019-01-09T17:51:10.217Z,134.93
2019-01-09T17:53:38.886Z,127.23
2019-01-09T17:56:07.546Z,127.23
2019-01-09T17:58:36.114Z,122.77
2019-01-09T18:01:05.964Z,153.43
2019-01-09T18:03:34.614Z,120.10
2019-01-09T18:06:03.348Z,126.27
2019-01-09T18:08:32.007Z,147.60
2019-01-09T18:11:00.625Z,152.90
2019-01-09T18:13:29.204Z,130.93
2019-01-09T18:15:57.787Z,170.93
2019-01-09T18:18:26.468Z,135.03
2019-01-09T18:20:55.118Z,171.37
2019-01-09T18:23:23.816Z,137.93
2019-01-09T18:25:52.531Z,113.00
2019-01-09T18:28:21.178Z,137.53
2019-01-09T18:30:53.124Z,134.97
2019-01-09T18:33:23.472Z,110.60
2019-01-09T18:35:53.388Z,114.40
2019-01-09T18:38:25.154Z,126.83
2019-01-09T18:41:11.670Z,125.37
2019-01-09T18:43:41.566Z,108.87
2019-01-09T18:46:23.456Z,108.23
2019-01-09T18:49:17.808Z,119.23
2019-01-09T18:51:50.705Z,112.80
2019-01-09T18:54:20.232Z,102.17
2019-01-09T18:56:48.505Z,130.27
2019-01-09T18:59:18.441Z,104.30
2019-01-09T19:01:47.080Z,115.50
2019-01-09T19:04:15.720Z,115.47
2019-01-09T19:06:44.406Z,123.83
2019-01-09T19:09:14.204Z,120.23
2019-01-09T19:11:50.442Z,124.80
2019-01-09T19:14:12.796Z,124.93
2019-01-09T19:16:41.364Z,110.07
2019-01-09T19:19:10.015Z,105.93
2019-01-09T19:21:38.392Z,104.40
2019-01-09T19:24:07.060Z,114.83
2019-01-09T19:26:35.681Z,116.90
2019-01-09T19:29:04.367Z,114.27
2019-01-09T19:31:33.020Z,105.60
2019-01-09T19:34:01.677Z,109.17
2019-01-09T19:36:30.370Z,105.10
2019-01-09T19:38:58.939Z,118.97
2019-01-09T19:41:27.592Z,118.20
2019-01-09T19:43:56.279Z,119.23
2019-01-09T19:46:27.333Z,129.77
2019-01-09T19:48:56.553Z,132.00
2019-01-09T19:51:25.174Z,110.03
2019-01-09T19:53:53.511Z,120.97
2019-01-09T19:56:21.765Z,126.00
2019-01-09T19:58:50.551Z,130.57
2019-01-09T20:01:18.883Z,116.67
2019-01-09T20:03:47.451Z,105.70
2019-01-09T20:06:16.140Z,124.73
2019-01-09T20:08:44.789Z,131.43
2019-01-09T20:11:13.460Z,110.47
2019-01-09T20:13:42.151Z,122.60
2019-01-09T20:16:10.795Z,123.83
2019-01-09T20:18:39.435Z,96.20
2019-01-09T20:21:08.082Z,112.27
2019-01-09T20:23:36.850Z,120.13
2019-01-09T20:26:05.306Z,108.77
2019-01-09T20:28:33.999Z,110.33
2019-01-09T20:31:02.286Z,112.90
2019-01-09T20:33:30.978Z,109.63
2019-01-09T20:35:59.661Z,107.87
2019-01-09T20:38:28.307Z,106.30
2019-01-09T20:40:57.038Z,117.20
2019-01-09T20:43:25.737Z,109.70
2019-01-09T20:45:54.120Z,102.97
2019-01-09T20:48:22.714Z,106.47
2019-01-09T20:50:51.440Z,96.43
2019-01-09T20:53:19.981Z,95.67
2019-01-09T20:55:48.511Z,113.80
2019-01-09T20:58:17.219Z,117.90
2019-01-09T21:00:46.828Z,118.60
2019-01-09T21:03:15.488Z,112.70
2019-01-09T21:05:44.156Z,111.37
2019-01-09T21:08:12.843Z,101.93
2019-01-09T21:10:41.513Z,102.60
2019-01-09T21:13:10.198Z,106.70
2019-01-09T21:15:38.470Z,103.27
2019-01-09T21:18:07.031Z,115.50
2019-01-09T21:20:35.575Z,107.47
2019-01-09T21:23:04.326Z,144.33
2019-01-09T21:25:32.836Z,101.53
2019-01-09T21:28:01.472Z,137.73
2019-01-09T21:30:30.039Z,112.40
2019-01-09T21:32:58.701Z,99.00
2019-01-09T21:35:27.066Z,121.20
2019-01-09T21:37:55.396Z,106.73
2019-01-09T21:40:24.857Z,97.80
2019-01-09T21:42:53.222Z,101.97
2019-01-09T21:45:21.554Z,105.37
2019-01-09T21:47:50.626Z,105.93
2019-01-09T21:50:23.345Z,93.30
2019-01-09T21:52:51.995Z,99.10
2019-01-09T21:55:20.563Z,107.00
2019-01-09T21:57:49.177Z,103.23
2019-01-09T22:00:22.706Z,128.17
2019-01-09T22:02:51.339Z,114.73
2019-01-09T22:05:19.939Z,118.87
2019-01-09T22:07:48.515Z,105.97
2019-01-09T22:10:23.050Z,149.50
2019-01-09T22:12:51.693Z,111.67
2019-01-09T22:15:20.278Z,108.57
2019-01-09T22:17:48.917Z,89.13
2019-01-09T22:20:19.297Z,115.13
2019-01-09T22:22:48.444Z,97.90
2019-01-09T22:25:17.014Z,100.30
2019-01-09T22:27:45.702Z,109.33
2019-01-09T22:30:19.825Z,113.70
2019-01-09T22:32:48.461Z,125.73
2019-01-09T22:35:16.799Z,100.37
2019-01-09T22:37:45.868Z,103.10
2019-01-09T22:40:15.792Z,112.30
2019-01-09T22:42:44.396Z,111.60
2019-01-09T22:45:13.465Z,120.83
2019-01-09T22:47:42.084Z,142.17
2019-01-09T22:50:12.425Z,143.13
2019-01-09T22:52:40.691Z,113.50
2019-01-09T22:55:10.189Z,118.30
2019-01-09T22:57:38.539Z,106.03
2019-01-09T23:00:31.919Z,113.83
2019-01-09T23:03:00.784Z,107.97
2019-01-09T23:05:29.379Z,156.83
2019-01-09T23:07:58.185Z,161.40
2019-01-09T23:10:26.885Z,137.10
2019-01-09T23:12:55.534Z,135.13
2019-01-09T23:15:24.167Z,142.57
2019-01-09T23:17:52.664Z,154.40
2019-01-09T23:20:21.254Z,139.30
2019-01-09T23:22:49.881Z,133.13
2019-01-09T23:25:18.219Z,103.30
2019-01-09T23:27:46.477Z,113.73
2019-01-09T23:30:14.778Z,123.90
2019-01-09T23:32:43.416Z,111.90
2019-01-09T23:35:12.489Z,101.00
2019-01-09T23:37:41.088Z,94.03
2019-01-09T23:40:12.071Z,114.33
2019-01-09T23:42:40.340Z,124.90
2019-01-09T23:45:13.281Z,123.30
2019-01-09T23:47:41.626Z,98.83
2019-01-09T23:50:11.105Z,107.20
2019-01-09T23:52:39.330Z,123.93
2019-01-09T23:55:09.618Z,104.67
2019-01-09T23:57:38.104Z,113.83
